Flight Track Log - Related Links

Times and Time Zones

All times are in EDT time to prevent confusion due to time zone crossing. See the N448ND flight status page for this flight to view local times or setup timezone preferences in your user account.

Time Position Orientation Groundspeed Altitude Reporting Facility
EDT Latitude Longitude Course Direction KTS MPH feet Rate Location/Type
Mon 09:14:53 PM 27.5236 -80.3436 330° Northwest 90 104 1,600  Level Miami Center
Mon 09:15:53 PM 27.5486 -80.3492 349° North 85 98 2,300 600 Climbing Miami Center
Mon 09:16:53 PM 27.5733 -80.3617 336° Northwest 90 104 2,800 500 Climbing Miami Center
Mon 09:17:53 PM 27.5939 -80.3739 332° Northwest 90 104 3,300 500 Climbing Miami Center
Mon 09:18:53 PM 27.6164 -80.3864 334° Northwest 96 110 3,800 500 Climbing Miami Center
Mon 09:19:00 PM 27.5925 -80.4343 330° Northwest  Level FlightAware Approximate
Mon 09:19:53 PM 27.6411 -80.4011 332° Northwest 96 110 4,300  Level Miami Center
Mon 09:20:00 PM 27.6115 -80.4466 330° Northwest  Level FlightAware Approximate
Mon 09:20:53 PM 27.6658 -80.4161 332° Northwest 96 110 4,800  Level Miami Center
Mon 09:21:53 PM 27.6906 -80.4286 336° Northwest 96 110 5,000 72 Climbing Miami Center
Mon 09:23:40 PM 27.7500 -80.4500 342° North 110 127 5,000  Level Orlando TRACON
Mon 09:24:40 PM 27.7667 -80.4667 318° Northwest 110 127 5,000  Level Orlando TRACON
Mon 09:25:46 PM 27.8000 -80.4833 336° Northwest 110 127 5,000  Level Orlando TRACON
Mon 09:26:46 PM 27.8333 -80.5000 339° North 110 127 5,000 26 Level Orlando TRACON
Mon 09:27:00 PM 27.8309 -80.4966 339° North  Level FlightAware Approximate
Mon 09:29:00 PM 27.8898 -80.5226 341° North  Level FlightAware Approximate
Mon 09:29:41 PM 27.9167 -80.5333 341° North 106 122 5,100  Level Orlando TRACON
Mon 09:31:47 PM 27.9667 -80.5667 330° Northwest 110 127 5,000 -31 Descending Orlando TRACON
Mon 09:32:53 PM 28.0000 -80.5667 360° North 108 124 5,000  Level Orlando TRACON
Mon 09:33:47 PM 28.0167 -80.5833 319° Northwest 113 130 5,000  Level Orlando TRACON
Mon 09:34:47 PM 28.0000 -80.5833 180° South 90 104 5,000  Level Orlando TRACON
Mon 09:35:53 PM 27.9833 -80.5667 139° Southeast 86 99 5,000 -273 Level Orlando TRACON
Mon 09:36:59 PM 27.9500 -80.5500 156° South 96 110 4,400 -545 Descending Orlando TRACON
Mon 09:39:00 PM 28.0047 -80.5682 344° North  Level FlightAware Approximate
Mon 09:46:00 PM 28.1481 -80.6501 343° North  Level FlightAware Approximate
Mon 09:47:00 PM 28.1751 -80.6596 343° North  Level FlightAware Approximate
Mon 09:48:00 PM 28.2022 -80.6690 343° North  Level FlightAware Approximate
Mon 09:49:00 PM 28.2292 -80.6785 343° North  Level FlightAware Approximate
Mon 09:50:00 PM 28.2561 -80.6879 343° North  Level FlightAware Approximate
Mon 09:51:00 PM 28.2831 -80.6973 343° North  Level FlightAware Approximate
Mon 09:52:00 PM 28.3102 -80.7068 343° North  Level FlightAware Approximate
Mon 09:53:00 PM 28.3372 -80.7163 343° North  Level FlightAware Approximate
Mon 09:54:00 PM 28.3641 -80.7257 343° North  Level FlightAware Approximate
Mon 09:55:00 PM 28.3911 -80.7352 343° North  Level FlightAware Approximate
Mon 09:56:00 PM 28.4181 -80.7447 343° North  Level FlightAware Approximate
Mon 09:57:00 PM 28.4450 -80.7547 341° North  Level FlightAware Approximate
Mon 09:58:00 PM 28.4717 -80.7653 341° North  Level FlightAware Approximate
Mon 09:59:00 PM 28.4983 -80.7760 341° North  Level FlightAware Approximate
Mon 10:00:00 PM 28.5247 -80.7874 336° Northwest  Level FlightAware Approximate
Mon 10:01:00 PM 28.5506 -80.8003 336° Northwest  Level FlightAware Approximate
Mon 10:02:00 PM 28.5765 -80.8132 336° Northwest  Level FlightAware Approximate
Mon 10:03:00 PM 28.6024 -80.8261 336° Northwest  Level FlightAware Approximate
Mon 10:04:00 PM 28.6282 -80.8391 336° Northwest  Level FlightAware Approximate
Mon 10:05:00 PM 28.6541 -80.8520 336° Northwest  Level FlightAware Approximate
Mon 10:06:00 PM 28.6800 -80.8650 336° Northwest  Level FlightAware Approximate
Mon 10:07:00 PM 28.7069 -80.8745 344° North  Level FlightAware Approximate
Mon 10:08:00 PM 28.7341 -80.8835 346° North  Level FlightAware Approximate
Mon 10:09:00 PM 28.7615 -80.8914 346° North  Level FlightAware Approximate
Mon 10:10:00 PM 28.7889 -80.8992 346° North  Level FlightAware Approximate
Mon 10:11:00 PM 28.8163 -80.9070 346° North  Level FlightAware Approximate
Mon 10:12:00 PM 28.8437 -80.9149 346° North  Level FlightAware Approximate
Mon 10:13:00 PM 28.8703 -80.9257 339° North  Level FlightAware Approximate
Mon 10:14:00 PM 28.8966 -80.9374 339° North  Level FlightAware Approximate
Mon 10:15:00 PM 28.9230 -80.9491 339° North  Level FlightAware Approximate
Mon 10:16:00 PM 28.9493 -80.9608 339° North  Level FlightAware Approximate
Mon 10:17:00 PM 28.9756 -80.9725 339° North  Level FlightAware Approximate
Mon 10:18:00 PM 29.0021 -80.9833 North  Level FlightAware Approximate
Mon 10:19:00 PM 29.0296 -80.9886 340° North  Level FlightAware Approximate
Mon 10:20:00 PM 29.0562 -80.9995 340° North  Level FlightAware Approximate
Mon 10:21:00 PM 29.0827 -81.0105 340° North  Level FlightAware Approximate
Mon 10:22:00 PM 29.1093 -81.0214 340° North  Level FlightAware Approximate
Mon 10:23:00 PM 29.1359 -81.0324 340° North  Level FlightAware Approximate
Mon 10:24:00 PM 29.1625 -81.0433 340° North  Level FlightAware Approximate
Mon 10:25:00 PM 29.1891 -81.0543 340° North  Level FlightAware Approximate
Mon 10:26:00 PM 29.2157 -81.0652 340° North  Level FlightAware Approximate
Mon 10:27:00 PM 29.2423 -81.0762 340° North  Level FlightAware Approximate
Mon 10:28:00 PM 29.2689 -81.0872 340° North  Level FlightAware Approximate
Mon 10:29:00 PM 29.2955 -81.0981 340° North  Level FlightAware Approximate
Mon 10:30:00 PM 29.3223 -81.1083 342° North  Level FlightAware Approximate
Mon 10:31:00 PM 29.3491 -81.1184 342° North  Level FlightAware Approximate
Mon 10:32:00 PM 29.3760 -81.1284 342° North  Level FlightAware Approximate
Mon 10:33:00 PM 29.4028 -81.1385 342° North  Level FlightAware Approximate
Mon 10:34:00 PM 29.4297 -81.1486 342° North  Level FlightAware Approximate
Mon 10:35:00 PM 29.4566 -81.1586 342° North  Level FlightAware Approximate
Mon 10:36:00 PM 29.4834 -81.1687 342° North  Level FlightAware Approximate
Mon 10:37:00 PM 29.5103 -81.1788 342° North  Level FlightAware Approximate
Mon 10:38:00 PM 29.5371 -81.1889 342° North  Level FlightAware Approximate
Mon 10:39:00 PM 29.5640 -81.1990 342° North  Level FlightAware Approximate
Mon 10:40:00 PM 29.5909 -81.2091 342° North  Level FlightAware Approximate
Mon 10:41:00 PM 29.6178 -81.2191 342° North  Level FlightAware Approximate
Mon 10:42:00 PM 29.6446 -81.2292 342° North  Level FlightAware Approximate
Mon 10:43:00 PM 29.6715 -81.2393 342° North  Level FlightAware Approximate
Mon 10:44:00 PM 29.6983 -81.2494 342° North  Level FlightAware Approximate
Mon 10:45:00 PM 29.7235 -81.2641 332° Northwest  Level FlightAware Approximate
Mon 10:46:00 PM 29.7486 -81.2791 332° Northwest  Level FlightAware Approximate
Mon 10:47:00 PM 29.7736 -81.2942 332° Northwest  Level FlightAware Approximate
Mon 10:48:00 PM 29.8006 -81.3000 North  Level FlightAware Approximate
Mon 10:49:00 PM 29.8289 -81.3000 North  Level FlightAware Approximate
Mon 10:50:00 PM 29.8552 -81.3109 337° Northwest  Level FlightAware Approximate
Mon 10:51:00 PM 29.8822 -81.3198 350° North  Level FlightAware Approximate
Mon 10:52:00 PM 29.9100 -81.3253 350° North  Level FlightAware Approximate
Mon 10:53:00 PM 29.9379 -81.3309 350° North  Level FlightAware Approximate
Mon 10:54:00 PM 29.9500 -81.3333 350° North  Level FlightAware Approximate
Mon 10:55:00 PM 29.9592 -81.3397 350° North  Level Estimated
Mon 10:56:00 PM 29.9592 -81.3397 350° North  Level Estimated
Mon 10:57:00 PM 29.9592 -81.3397 350° North  Level Estimated
Mon 10:58:00 PM 29.9592 -81.3397 350° North  Level Estimated
Mon 10:59:00 PM 29.9592 -81.3397 350° North  Level Estimated
Mon 11:00:00 PM 29.9592 -81.3397 350° North  Level Estimated
Mon 11:01:00 PM 29.9592 -81.3397 350° North  Level Estimated
Mon 11:02:00 PM 29.9592 -81.3397 350° North  Level Estimated
Mon 11:03:00 PM 29.9592 -81.3397 350° North  Level Estimated

Login

Don't have an account? Register now (free) for customized features, flight alerts, and more!